sensor_id;sensor_type;location;lat;lon;timestamp;temperature;humidity
43894;DHT22;29556;50.846;4.442;2022-09-09T00:00:18;16.20;95.30
43894;DHT22;29556;50.846;4.442;2022-09-09T00:02:59;16.30;95.40
43894;DHT22;29556;50.846;4.442;2022-09-09T00:05:43;16.20;95.40
43894;DHT22;29556;50.846;4.442;2022-09-09T00:08:17;16.30;95.80
43894;DHT22;29556;50.846;4.442;2022-09-09T00:10:51;16.30;95.80
43894;DHT22;29556;50.846;4.442;2022-09-09T00:13:24;16.40;96.20
43894;DHT22;29556;50.846;4.442;2022-09-09T00:15:59;16.50;95.80
43894;DHT22;29556;50.846;4.442;2022-09-09T00:21:39;16.40;95.40
43894;DHT22;29556;50.846;4.442;2022-09-09T00:24:23;16.40;95.50
43894;DHT22;29556;50.846;4.442;2022-09-09T00:26:56;16.40;95.40
43894;DHT22;29556;50.846;4.442;2022-09-09T00:29:38;16.40;95.30
43894;DHT22;29556;50.846;4.442;2022-09-09T00:32:14;16.40;95.10
43894;DHT22;29556;50.846;4.442;2022-09-09T00:34:49;16.40;95.10
43894;DHT22;29556;50.846;4.442;2022-09-09T00:37:18;16.40;95.10
43894;DHT22;29556;50.846;4.442;2022-09-09T00:39:46;16.30;95.20
43894;DHT22;29556;50.846;4.442;2022-09-09T00:42:20;16.30;95.40
43894;DHT22;29556;50.846;4.442;2022-09-09T00:45:01;16.40;95.80
43894;DHT22;29556;50.846;4.442;2022-09-09T00:47:51;16.40;95.80
43894;DHT22;29556;50.846;4.442;2022-09-09T00:50:29;16.50;95.70
43894;DHT22;29556;50.846;4.442;2022-09-09T00:53:18;16.50;95.80
43894;DHT22;29556;50.846;4.442;2022-09-09T00:56:09;16.60;95.70
43894;DHT22;29556;50.846;4.442;2022-09-09T00:58:37;16.50;95.70
43894;DHT22;29556;50.846;4.442;2022-09-09T01:01:10;16.50;95.90
43894;DHT22;29556;50.846;4.442;2022-09-09T01:03:55;16.60;95.80
43894;DHT22;29556;50.846;4.442;2022-09-09T01:06:31;16.60;95.90
43894;DHT22;29556;50.846;4.442;2022-09-09T01:09:22;16.60;95.90
43894;DHT22;29556;50.846;4.442;2022-09-09T01:14:40;16.60;95.70
43894;DHT22;29556;50.846;4.442;2022-09-09T01:17:29;16.60;95.80
43894;DHT22;29556;50.846;4.442;2022-09-09T01:22:45;16.60;96.00
43894;DHT22;29556;50.846;4.442;2022-09-09T01:28:11;16.60;95.90
43894;DHT22;29556;50.846;4.442;2022-09-09T01:30:41;16.60;95.90
43894;DHT22;29556;50.846;4.442;2022-09-09T01:33:17;16.60;95.90
43894;DHT22;29556;50.846;4.442;2022-09-09T01:36:04;16.60;95.90
43894;DHT22;29556;50.846;4.442;2022-09-09T01:38:32;16.70;95.90
43894;DHT22;29556;50.846;4.442;2022-09-09T01:41:00;16.70;95.70
43894;DHT22;29556;50.846;4.442;2022-09-09T01:43:27;16.70;95.50
43894;DHT22;29556;50.846;4.442;2022-09-09T01:45:55;16.60;95.50
43894;DHT22;29556;50.846;4.442;2022-09-09T01:48:22;16.60;95.50
43894;DHT22;29556;50.846;4.442;2022-09-09T01:50:49;16.50;95.60
43894;DHT22;29556;50.846;4.442;2022-09-09T01:53:15;16.60;95.80
43894;DHT22;29556;50.846;4.442;2022-09-09T01:55:48;16.50;95.60
43894;DHT22;29556;50.846;4.442;2022-09-09T01:58:31;16.60;95.60
43894;DHT22;29556;50.846;4.442;2022-09-09T02:01:24;16.50;95.70
43894;DHT22;29556;50.846;4.442;2022-09-09T02:03:57;16.50;95.60
43894;DHT22;29556;50.846;4.442;2022-09-09T02:06:35;16.50;95.40
43894;DHT22;29556;50.846;4.442;2022-09-09T02:09:07;16.40;95.70
43894;DHT22;29556;50.846;4.442;2022-09-09T02:11:36;16.50;96.00
43894;DHT22;29556;50.846;4.442;2022-09-09T02:14:10;16.40;96.00
43894;DHT22;29556;50.846;4.442;2022-09-09T02:17:01;16.50;95.90
43894;DHT22;29556;50.846;4.442;2022-09-09T02:19:45;16.40;95.80
43894;DHT22;29556;50.846;4.442;2022-09-09T02:22:18;16.40;96.00
43894;DHT22;29556;50.846;4.442;2022-09-09T02:24:45;16.40;95.80
43894;DHT22;29556;50.846;4.442;2022-09-09T02:27:13;16.40;95.70
43894;DHT22;29556;50.846;4.442;2022-09-09T02:29:42;16.50;95.70
43894;DHT22;29556;50.846;4.442;2022-09-09T02:32:26;16.50;95.60
43894;DHT22;29556;50.846;4.442;2022-09-09T02:35:05;16.40;95.50
43894;DHT22;29556;50.846;4.442;2022-09-09T02:37:35;16.30;95.80
43894;DHT22;29556;50.846;4.442;2022-09-09T02:40:06;16.20;95.80
43894;DHT22;29556;50.846;4.442;2022-09-09T02:42:46;16.20;96.30
43894;DHT22;29556;50.846;4.442;2022-09-09T02:45:16;16.20;96.30
43894;DHT22;29556;50.846;4.442;2022-09-09T02:47:50;16.30;97.00
43894;DHT22;29556;50.846;4.442;2022-09-09T02:50:34;16.30;96.40
43894;DHT22;29556;50.846;4.442;2022-09-09T02:53:17;16.30;96.40
43894;DHT22;29556;50.846;4.442;2022-09-09T02:55:50;16.30;96.30
43894;DHT22;29556;50.846;4.442;2022-09-09T02:58:18;16.40;96.30
43894;DHT22;29556;50.846;4.442;2022-09-09T03:00:47;16.40;96.10
43894;DHT22;29556;50.846;4.442;2022-09-09T03:03:13;16.40;95.80
43894;DHT22;29556;50.846;4.442;2022-09-09T03:05:39;16.40;95.80
43894;DHT22;29556;50.846;4.442;2022-09-09T03:08:06;16.40;96.30
43894;DHT22;29556;50.846;4.442;2022-09-09T03:10:32;16.40;95.80
43894;DHT22;29556;50.846;4.442;2022-09-09T03:12:58;16.20;96.10
43894;DHT22;29556;50.846;4.442;2022-09-09T03:15:24;16.20;97.10
43894;DHT22;29556;50.846;4.442;2022-09-09T03:17:49;16.30;96.50
43894;DHT22;29556;50.846;4.442;2022-09-09T03:20:15;16.20;96.40
43894;DHT22;29556;50.846;4.442;2022-09-09T03:22:41;16.30;96.70
43894;DHT22;29556;50.846;4.442;2022-09-09T03:25:07;16.30;96.30
43894;DHT22;29556;50.846;4.442;2022-09-09T03:27:33;16.30;96.00
43894;DHT22;29556;50.846;4.442;2022-09-09T03:29:58;16.20;96.10
43894;DHT22;29556;50.846;4.442;2022-09-09T03:32:24;16.20;96.10
43894;DHT22;29556;50.846;4.442;2022-09-09T03:34:51;16.20;96.50
43894;DHT22;29556;50.846;4.442;2022-09-09T03:37:18;16.40;96.50
43894;DHT22;29556;50.846;4.442;2022-09-09T03:39:44;16.30;96.30
43894;DHT22;29556;50.846;4.442;2022-09-09T03:42:13;16.20;96.20
43894;DHT22;29556;50.846;4.442;2022-09-09T03:44:46;16.30;96.70
43894;DHT22;29556;50.846;4.442;2022-09-09T03:47:20;16.30;96.30
43894;DHT22;29556;50.846;4.442;2022-09-09T03:49:47;16.30;96.10
43894;DHT22;29556;50.846;4.442;2022-09-09T03:52:14;16.20;96.30
43894;DHT22;29556;50.846;4.442;2022-09-09T03:54:40;16.20;96.30
43894;DHT22;29556;50.846;4.442;2022-09-09T03:57:08;16.10;96.30
43894;DHT22;29556;50.846;4.442;2022-09-09T03:59:34;16.10;96.40
43894;DHT22;29556;50.846;4.442;2022-09-09T04:02:01;16.10;96.00
43894;DHT22;29556;50.846;4.442;2022-09-09T04:04:27;16.00;96.30
43894;DHT22;29556;50.846;4.442;2022-09-09T04:06:53;16.10;96.80
43894;DHT22;29556;50.846;4.442;2022-09-09T04:09:20;16.10;96.60
43894;DHT22;29556;50.846;4.442;2022-09-09T04:11:46;16.20;96.60
43894;DHT22;29556;50.846;4.442;2022-09-09T04:14:12;16.30;96.70
43894;DHT22;29556;50.846;4.442;2022-09-09T04:16:38;16.30;96.80
43894;DHT22;29556;50.846;4.442;2022-09-09T04:19:04;16.30;96.60
43894;DHT22;29556;50.846;4.442;2022-09-09T04:21:32;16.30;96.20
43894;DHT22;29556;50.846;4.442;2022-09-09T04:23:58;16.30;96.40
43894;DHT22;29556;50.846;4.442;2022-09-09T04:26:24;16.40;96.60
43894;DHT22;29556;50.846;4.442;2022-09-09T04:28:50;16.30;96.10
43894;DHT22;29556;50.846;4.442;2022-09-09T04:31:18;16.30;96.30
43894;DHT22;29556;50.846;4.442;2022-09-09T04:33:45;16.30;95.80
43894;DHT22;29556;50.846;4.442;2022-09-09T04:36:13;16.30;96.20
43894;DHT22;29556;50.846;4.442;2022-09-09T04:38:38;16.30;95.70
43894;DHT22;29556;50.846;4.442;2022-09-09T04:41:05;16.30;95.90
43894;DHT22;29556;50.846;4.442;2022-09-09T04:43:31;16.20;95.80
43894;DHT22;29556;50.846;4.442;2022-09-09T04:45:57;16.20;96.10
43894;DHT22;29556;50.846;4.442;2022-09-09T04:48:24;16.10;95.90
43894;DHT22;29556;50.846;4.442;2022-09-09T04:51:02;16.10;95.80
43894;DHT22;29556;50.846;4.442;2022-09-09T04:53:29;16.20;96.20
43894;DHT22;29556;50.846;4.442;2022-09-09T04:56:12;16.10;96.00
43894;DHT22;29556;50.846;4.442;2022-09-09T04:58:38;16.10;96.10
43894;DHT22;29556;50.846;4.442;2022-09-09T05:01:08;16.20;96.50
43894;DHT22;29556;50.846;4.442;2022-09-09T05:03:34;16.20;96.00
43894;DHT22;29556;50.846;4.442;2022-09-09T05:06:26;16.20;96.30
43894;DHT22;29556;50.846;4.442;2022-09-09T05:08:52;16.20;95.80
43894;DHT22;29556;50.846;4.442;2022-09-09T05:11:23;16.10;95.50
43894;DHT22;29556;50.846;4.442;2022-09-09T05:13:50;16.10;95.90
43894;DHT22;29556;50.846;4.442;2022-09-09T05:16:16;16.10;96.10
43894;DHT22;29556;50.846;4.442;2022-09-09T05:18:42;16.10;96.20
43894;DHT22;29556;50.846;4.442;2022-09-09T05:21:09;16.00;96.00
43894;DHT22;29556;50.846;4.442;2022-09-09T05:23:34;16.00;95.90
43894;DHT22;29556;50.846;4.442;2022-09-09T05:26:01;16.00;95.90
43894;DHT22;29556;50.846;4.442;2022-09-09T05:28:27;16.00;95.90
43894;DHT22;29556;50.846;4.442;2022-09-09T05:31:02;16.20;96.40
43894;DHT22;29556;50.846;4.442;2022-09-09T05:33:35;16.40;96.80
43894;DHT22;29556;50.846;4.442;2022-09-09T05:36:04;16.30;96.40
43894;DHT22;29556;50.846;4.442;2022-09-09T05:38:32;16.30;95.40
43894;DHT22;29556;50.846;4.442;2022-09-09T05:40:59;16.30;95.60
43894;DHT22;29556;50.846;4.442;2022-09-09T05:43:26;16.30;96.50
43894;DHT22;29556;50.846;4.442;2022-09-09T05:46:08;16.20;95.20
43894;DHT22;29556;50.846;4.442;2022-09-09T05:48:49;16.40;96.60
43894;DHT22;29556;50.846;4.442;2022-09-09T05:51:26;16.50;96.00
43894;DHT22;29556;50.846;4.442;2022-09-09T05:53:52;16.50;95.90
43894;DHT22;29556;50.846;4.442;2022-09-09T05:56:24;16.50;96.00
43894;DHT22;29556;50.846;4.442;2022-09-09T05:58:51;16.60;96.20
43894;DHT22;29556;50.846;4.442;2022-09-09T06:01:19;16.60;95.90
43894;DHT22;29556;50.846;4.442;2022-09-09T06:03:46;16.70;95.60
43894;DHT22;29556;50.846;4.442;2022-09-09T06:06:16;16.70;95.60
43894;DHT22;29556;50.846;4.442;2022-09-09T06:08:44;16.50;95.60
43894;DHT22;29556;50.846;4.442;2022-09-09T06:11:15;16.50;95.50
43894;DHT22;29556;50.846;4.442;2022-09-09T06:13:42;16.60;95.70
43894;DHT22;29556;50.846;4.442;2022-09-09T06:16:13;16.60;95.60
43894;DHT22;29556;50.846;4.442;2022-09-09T06:18:40;16.60;95.70
43894;DHT22;29556;50.846;4.442;2022-09-09T06:21:08;16.70;95.80
43894;DHT22;29556;50.846;4.442;2022-09-09T06:23:34;16.70;95.60
43894;DHT22;29556;50.846;4.442;2022-09-09T06:26:15;16.70;95.70
43894;DHT22;29556;50.846;4.442;2022-09-09T06:28:41;16.70;95.30
43894;DHT22;29556;50.846;4.442;2022-09-09T06:31:11;16.80;95.70
43894;DHT22;29556;50.846;4.442;2022-09-09T06:33:41;16.80;96.00
43894;DHT22;29556;50.846;4.442;2022-09-09T06:36:18;16.80;94.80
43894;DHT22;29556;50.846;4.442;2022-09-09T06:38:45;16.80;95.70
43894;DHT22;29556;50.846;4.442;2022-09-09T06:41:13;16.80;95.10
43894;DHT22;29556;50.846;4.442;2022-09-09T06:43:39;17.00;96.00
43894;DHT22;29556;50.846;4.442;2022-09-09T06:46:05;17.00;95.30
43894;DHT22;29556;50.846;4.442;2022-09-09T06:48:31;17.10;95.60
43894;DHT22;29556;50.846;4.442;2022-09-09T06:51:18;17.00;95.20
43894;DHT22;29556;50.846;4.442;2022-09-09T06:53:45;17.10;94.70
43894;DHT22;29556;50.846;4.442;2022-09-09T06:56:17;17.00;93.90
43894;DHT22;29556;50.846;4.442;2022-09-09T06:58:44;16.90;93.90
43894;DHT22;29556;50.846;4.442;2022-09-09T07:01:12;16.90;93.80
43894;DHT22;29556;50.846;4.442;2022-09-09T07:03:42;17.00;94.50
43894;DHT22;29556;50.846;4.442;2022-09-09T07:06:15;17.10;95.10
43894;DHT22;29556;50.846;4.442;2022-09-09T07:08:42;17.10;94.40
43894;DHT22;29556;50.846;4.442;2022-09-09T07:11:09;17.20;94.30
43894;DHT22;29556;50.846;4.442;2022-09-09T07:13:35;17.20;94.70
43894;DHT22;29556;50.846;4.442;2022-09-09T07:16:11;17.30;93.10
43894;DHT22;29556;50.846;4.442;2022-09-09T07:18:39;17.40;94.70
43894;DHT22;29556;50.846;4.442;2022-09-09T07:21:05;17.50;96.10
43894;DHT22;29556;50.846;4.442;2022-09-09T07:23:32;17.70;95.00
43894;DHT22;29556;50.846;4.442;2022-09-09T07:25:58;17.40;93.10
43894;DHT22;29556;50.846;4.442;2022-09-09T07:28:25;17.40;93.70
43894;DHT22;29556;50.846;4.442;2022-09-09T07:31:00;17.60;95.00
43894;DHT22;29556;50.846;4.442;2022-09-09T07:33:31;17.70;93.70
43894;DHT22;29556;50.846;4.442;2022-09-09T07:36:17;17.60;92.50
43894;DHT22;29556;50.846;4.442;2022-09-09T07:38:51;17.50;91.40
43894;DHT22;29556;50.846;4.442;2022-09-09T07:42:03;17.40;92.50
43894;DHT22;29556;50.846;4.442;2022-09-09T07:44:13;17.50;93.40
43894;DHT22;29556;50.846;4.442;2022-09-09T07:46:39;17.40;92.70
43894;DHT22;29556;50.846;4.442;2022-09-09T07:49:05;17.50;93.40
43894;DHT22;29556;50.846;4.442;2022-09-09T07:51:37;17.50;92.80
43894;DHT22;29556;50.846;4.442;2022-09-09T07:54:06;17.50;93.40
43894;DHT22;29556;50.846;4.442;2022-09-09T07:56:33;17.60;93.00
43894;DHT22;29556;50.846;4.442;2022-09-09T07:58:59;17.30;91.70
43894;DHT22;29556;50.846;4.442;2022-09-09T08:01:32;17.20;92.90
43894;DHT22;29556;50.846;4.442;2022-09-09T08:04:03;17.20;93.00
43894;DHT22;29556;50.846;4.442;2022-09-09T08:06:32;17.10;92.90
43894;DHT22;29556;50.846;4.442;2022-09-09T08:08:59;17.20;93.10
43894;DHT22;29556;50.846;4.442;2022-09-09T08:11:27;17.30;93.90
43894;DHT22;29556;50.846;4.442;2022-09-09T08:14:00;17.60;94.40
43894;DHT22;29556;50.846;4.442;2022-09-09T08:16:31;17.60;93.80
43894;DHT22;29556;50.846;4.442;2022-09-09T08:18:57;17.60;93.90
43894;DHT22;29556;50.846;4.442;2022-09-09T08:21:28;17.90;95.40
43894;DHT22;29556;50.846;4.442;2022-09-09T08:23:55;17.70;93.00
43894;DHT22;29556;50.846;4.442;2022-09-09T08:26:23;17.90;94.20
43894;DHT22;29556;50.846;4.442;2022-09-09T08:28:51;18.10;93.60
43894;DHT22;29556;50.846;4.442;2022-09-09T08:31:31;18.10;93.90
43894;DHT22;29556;50.846;4.442;2022-09-09T08:33:58;18.40;95.50
43894;DHT22;29556;50.846;4.442;2022-09-09T08:36:39;18.50;94.10
43894;DHT22;29556;50.846;4.442;2022-09-09T08:39:06;18.60;92.40
43894;DHT22;29556;50.846;4.442;2022-09-09T08:41:44;18.40;90.60
43894;DHT22;29556;50.846;4.442;2022-09-09T08:52:00;18.50;91.70
43894;DHT22;29556;50.846;4.442;2022-09-09T08:54:30;18.70;93.00
43894;DHT22;29556;50.846;4.442;2022-09-09T08:56:58;18.50;90.90
43894;DHT22;29556;50.846;4.442;2022-09-09T08:59:24;18.60;92.20
43894;DHT22;29556;50.846;4.442;2022-09-09T09:01:58;18.70;92.40
43894;DHT22;29556;50.846;4.442;2022-09-09T09:10:59;18.50;92.20
43894;DHT22;29556;50.846;4.442;2022-09-09T09:12:56;18.70;91.20
43894;DHT22;29556;50.846;4.442;2022-09-09T09:15:29;18.60;92.30
43894;DHT22;29556;50.846;4.442;2022-09-09T09:17:56;18.80;93.10
43894;DHT22;29556;50.846;4.442;2022-09-09T09:20:43;18.80;92.10
43894;DHT22;29556;50.846;4.442;2022-09-09T09:23:21;18.70;91.70
43894;DHT22;29556;50.846;4.442;2022-09-09T09:25:47;18.80;91.50
43894;DHT22;29556;50.846;4.442;2022-09-09T09:28:23;18.60;90.90
43894;DHT22;29556;50.846;4.442;2022-09-09T09:31:01;18.50;91.00
43894;DHT22;29556;50.846;4.442;2022-09-09T09:33:31;18.50;91.80
43894;DHT22;29556;50.846;4.442;2022-09-09T09:36:00;18.40;91.60
43894;DHT22;29556;50.846;4.442;2022-09-09T09:38:28;18.40;91.40
43894;DHT22;29556;50.846;4.442;2022-09-09T09:40:56;18.30;91.20
43894;DHT22;29556;50.846;4.442;2022-09-09T09:43:30;18.10;90.90
43894;DHT22;29556;50.846;4.442;2022-09-09T09:45:57;18.10;91.10
43894;DHT22;29556;50.846;4.442;2022-09-09T09:48:27;18.10;91.20
43894;DHT22;29556;50.846;4.442;2022-09-09T09:51:09;18.10;91.90
43894;DHT22;29556;50.846;4.442;2022-09-09T09:53:37;18.30;92.30
43894;DHT22;29556;50.846;4.442;2022-09-09T09:56:06;18.20;91.40
43894;DHT22;29556;50.846;4.442;2022-09-09T10:01:03;18.30;91.90
43894;DHT22;29556;50.846;4.442;2022-09-09T10:03:31;18.20;91.00
43894;DHT22;29556;50.846;4.442;2022-09-09T10:05:57;18.20;91.40
43894;DHT22;29556;50.846;4.442;2022-09-09T10:08:27;18.10;91.70
43894;DHT22;29556;50.846;4.442;2022-09-09T10:11:12;18.20;91.60
43894;DHT22;29556;50.846;4.442;2022-09-09T10:16:45;18.20;91.00
43894;DHT22;29556;50.846;4.442;2022-09-09T10:19:34;18.10;91.50
43894;DHT22;29556;50.846;4.442;2022-09-09T10:22:33;18.20;91.90
43894;DHT22;29556;50.846;4.442;2022-09-09T10:25:21;18.40;92.30
43894;DHT22;29556;50.846;4.442;2022-09-09T10:31:31;18.40;92.30
43894;DHT22;29556;50.846;4.442;2022-09-09T10:34:51;18.30;91.30
43894;DHT22;29556;50.846;4.442;2022-09-09T10:41:09;18.50;91.00
43894;DHT22;29556;50.846;4.442;2022-09-09T10:55:00;18.70;89.30
43894;DHT22;29556;50.846;4.442;2022-09-09T10:57:45;18.70;89.60
43894;DHT22;29556;50.846;4.442;2022-09-09T11:03:04;19.20;90.80
43894;DHT22;29556;50.846;4.442;2022-09-09T11:05:44;19.40;88.90
43894;DHT22;29556;50.846;4.442;2022-09-09T11:11:18;19.50;88.30
43894;DHT22;29556;50.846;4.442;2022-09-09T11:13:55;19.80;90.40
43894;DHT22;29556;50.846;4.442;2022-09-09T11:16:47;19.80;86.20
43894;DHT22;29556;50.846;4.442;2022-09-09T11:19:21;19.90;88.20
43894;DHT22;29556;50.846;4.442;2022-09-09T11:21:51;19.70;84.90
43894;DHT22;29556;50.846;4.442;2022-09-09T11:24:28;19.70;86.30
43894;DHT22;29556;50.846;4.442;2022-09-09T11:27:19;19.70;86.80
43894;DHT22;29556;50.846;4.442;2022-09-09T11:38:28;19.80;84.70
43894;DHT22;29556;50.846;4.442;2022-09-09T11:41:14;19.80;85.20
43894;DHT22;29556;50.846;4.442;2022-09-09T11:43:49;19.80;83.70
43894;DHT22;29556;50.846;4.442;2022-09-09T11:46:21;19.90;84.60
43894;DHT22;29556;50.846;4.442;2022-09-09T11:49:03;19.90;83.40
43894;DHT22;29556;50.846;4.442;2022-09-09T11:51:31;19.90;82.60
43894;DHT22;29556;50.846;4.442;2022-09-09T11:54:22;19.80;83.70
43894;DHT22;29556;50.846;4.442;2022-09-09T11:56:48;19.80;83.30
43894;DHT22;29556;50.846;4.442;2022-09-09T11:59:33;19.90;84.80
43894;DHT22;29556;50.846;4.442;2022-09-09T12:04:42;20.10;85.40
43894;DHT22;29556;50.846;4.442;2022-09-09T12:09:46;20.10;84.20
43894;DHT22;29556;50.846;4.442;2022-09-09T12:17:29;19.90;83.90
43894;DHT22;29556;50.846;4.442;2022-09-09T12:31:17;19.90;81.40
43894;DHT22;29556;50.846;4.442;2022-09-09T12:33:46;19.90;83.80
43894;DHT22;29556;50.846;4.442;2022-09-09T12:36:28;19.80;81.90
43894;DHT22;29556;50.846;4.442;2022-09-09T12:38:59;19.80;84.00
43894;DHT22;29556;50.846;4.442;2022-09-09T12:41:36;20.00;85.40
43894;DHT22;29556;50.846;4.442;2022-09-09T12:44:09;20.00;82.10
43894;DHT22;29556;50.846;4.442;2022-09-09T12:46:42;20.00;81.70
43894;DHT22;29556;50.846;4.442;2022-09-09T12:49:32;20.00;81.50
43894;DHT22;29556;50.846;4.442;2022-09-09T12:52:07;20.20;82.40
43894;DHT22;29556;50.846;4.442;2022-09-09T12:54:35;20.40;81.40
43894;DHT22;29556;50.846;4.442;2022-09-09T12:57:12;20.40;80.70
43894;DHT22;29556;50.846;4.442;2022-09-09T12:59:43;20.70;81.20
43894;DHT22;29556;50.846;4.442;2022-09-09T13:02:22;20.70;79.00
43894;DHT22;29556;50.846;4.442;2022-09-09T13:04:49;20.80;78.70
43894;DHT22;29556;50.846;4.442;2022-09-09T13:07:16;21.00;79.80
43894;DHT22;29556;50.846;4.442;2022-09-09T13:09:44;21.10;80.30
43894;DHT22;29556;50.846;4.442;2022-09-09T13:12:16;21.10;76.60
43894;DHT22;29556;50.846;4.442;2022-09-09T13:14:49;21.10;77.00
43894;DHT22;29556;50.846;4.442;2022-09-09T13:17:27;20.90;78.60
43894;DHT22;29556;50.846;4.442;2022-09-09T13:19:56;20.90;77.20
43894;DHT22;29556;50.846;4.442;2022-09-09T13:22:26;21.00;79.80
43894;DHT22;29556;50.846;4.442;2022-09-09T13:25:19;21.00;77.00
43894;DHT22;29556;50.846;4.442;2022-09-09T13:28:03;21.00;78.50
43894;DHT22;29556;50.846;4.442;2022-09-09T13:30:32;21.00;77.80
43894;DHT22;29556;50.846;4.442;2022-09-09T13:35:31;21.10;78.00
43894;DHT22;29556;50.846;4.442;2022-09-09T13:37:58;21.00;78.10
43894;DHT22;29556;50.846;4.442;2022-09-09T13:40:24;21.00;77.90
43894;DHT22;29556;50.846;4.442;2022-09-09T13:43:18;21.10;77.50
43894;DHT22;29556;50.846;4.442;2022-09-09T13:46:02;21.20;75.10
43894;DHT22;29556;50.846;4.442;2022-09-09T13:48:28;21.20;77.60
43894;DHT22;29556;50.846;4.442;2022-09-09T13:51:03;21.40;77.50
43894;DHT22;29556;50.846;4.442;2022-09-09T13:53:31;21.40;76.80
43894;DHT22;29556;50.846;4.442;2022-09-09T13:55:57;21.50;75.40
43894;DHT22;29556;50.846;4.442;2022-09-09T13:58:24;21.70;78.40
43894;DHT22;29556;50.846;4.442;2022-09-09T14:00:53;21.60;73.20
43894;DHT22;29556;50.846;4.442;2022-09-09T14:03:19;21.60;73.80
43894;DHT22;29556;50.846;4.442;2022-09-09T14:05:45;21.70;74.20
43894;DHT22;29556;50.846;4.442;2022-09-09T14:08:29;21.50;73.50
43894;DHT22;29556;50.846;4.442;2022-09-09T14:11:03;21.80;73.40
43894;DHT22;29556;50.846;4.442;2022-09-09T14:13:28;21.80;74.00
43894;DHT22;29556;50.846;4.442;2022-09-09T14:15:54;21.90;75.70
43894;DHT22;29556;50.846;4.442;2022-09-09T14:18:20;21.60;70.90
43894;DHT22;29556;50.846;4.442;2022-09-09T14:20:47;21.70;73.40
43894;DHT22;29556;50.846;4.442;2022-09-09T14:23:13;21.70;72.60
43894;DHT22;29556;50.846;4.442;2022-09-09T14:25:44;21.50;73.80
43894;DHT22;29556;50.846;4.442;2022-09-09T14:28:11;21.60;74.80
43894;DHT22;29556;50.846;4.442;2022-09-09T14:30:42;21.50;73.20
43894;DHT22;29556;50.846;4.442;2022-09-09T14:33:11;21.30;73.30
43894;DHT22;29556;50.846;4.442;2022-09-09T14:35:37;21.30;74.30
43894;DHT22;29556;50.846;4.442;2022-09-09T14:38:04;21.20;74.10
43894;DHT22;29556;50.846;4.442;2022-09-09T14:40:30;21.20;74.80
43894;DHT22;29556;50.846;4.442;2022-09-09T14:42:56;21.30;74.90
43894;DHT22;29556;50.846;4.442;2022-09-09T14:45:25;21.30;75.50
43894;DHT22;29556;50.846;4.442;2022-09-09T14:47:52;21.40;74.60
43894;DHT22;29556;50.846;4.442;2022-09-09T14:50:19;21.30;75.70
43894;DHT22;29556;50.846;4.442;2022-09-09T14:52:45;21.40;75.80
43894;DHT22;29556;50.846;4.442;2022-09-09T14:55:12;21.40;76.10
43894;DHT22;29556;50.846;4.442;2022-09-09T14:57:38;21.40;75.70
43894;DHT22;29556;50.846;4.442;2022-09-09T15:00:06;21.40;75.00
43894;DHT22;29556;50.846;4.442;2022-09-09T15:02:33;21.30;75.30
43894;DHT22;29556;50.846;4.442;2022-09-09T15:04:58;21.50;75.30
43894;DHT22;29556;50.846;4.442;2022-09-09T15:07:25;21.40;73.50
43894;DHT22;29556;50.846;4.442;2022-09-09T15:09:51;21.40;72.10
43894;DHT22;29556;50.846;4.442;2022-09-09T15:12:18;21.50;74.50
43894;DHT22;29556;50.846;4.442;2022-09-09T15:14:47;21.40;72.00
43894;DHT22;29556;50.846;4.442;2022-09-09T15:17:14;21.40;74.50
43894;DHT22;29556;50.846;4.442;2022-09-09T15:19:41;21.40;72.30
43894;DHT22;29556;50.846;4.442;2022-09-09T15:22:08;21.40;74.30
43894;DHT22;29556;50.846;4.442;2022-09-09T15:24:34;21.40;73.70
43894;DHT22;29556;50.846;4.442;2022-09-09T15:27:01;21.30;73.00
43894;DHT22;29556;50.846;4.442;2022-09-09T15:29:27;21.30;73.20
43894;DHT22;29556;50.846;4.442;2022-09-09T15:31:55;21.20;72.90
43894;DHT22;29556;50.846;4.442;2022-09-09T15:34:21;21.20;74.30
43894;DHT22;29556;50.846;4.442;2022-09-09T15:36:47;21.20;72.30
43894;DHT22;29556;50.846;4.442;2022-09-09T15:39:15;21.10;73.90
43894;DHT22;29556;50.846;4.442;2022-09-09T15:41:42;20.90;72.90
43894;DHT22;29556;50.846;4.442;2022-09-09T15:44:09;20.80;74.40
43894;DHT22;29556;50.846;4.442;2022-09-09T15:46:55;20.90;76.90
43894;DHT22;29556;50.846;4.442;2022-09-09T15:49:23;20.90;74.80
43894;DHT22;29556;50.846;4.442;2022-09-09T15:51:54;21.00;77.30
43894;DHT22;29556;50.846;4.442;2022-09-09T15:54:22;20.90;75.00
43894;DHT22;29556;50.846;4.442;2022-09-09T15:56:57;20.90;75.90
43894;DHT22;29556;50.846;4.442;2022-09-09T15:59:24;20.90;75.30
43894;DHT22;29556;50.846;4.442;2022-09-09T16:01:50;20.90;76.20
43894;DHT22;29556;50.846;4.442;2022-09-09T16:04:17;20.90;76.20
43894;DHT22;29556;50.846;4.442;2022-09-09T16:06:52;21.00;77.20
43894;DHT22;29556;50.846;4.442;2022-09-09T16:09:18;21.10;76.80
43894;DHT22;29556;50.846;4.442;2022-09-09T16:11:45;21.10;76.10
43894;DHT22;29556;50.846;4.442;2022-09-09T16:14:12;20.90;75.50
43894;DHT22;29556;50.846;4.442;2022-09-09T16:16:38;21.00;75.00
43894;DHT22;29556;50.846;4.442;2022-09-09T16:19:06;20.90;75.60
43894;DHT22;29556;50.846;4.442;2022-09-09T16:21:40;20.80;75.30
43894;DHT22;29556;50.846;4.442;2022-09-09T16:24:09;20.80;76.00
43894;DHT22;29556;50.846;4.442;2022-09-09T16:26:37;20.80;75.40
43894;DHT22;29556;50.846;4.442;2022-09-09T16:29:06;20.80;76.80
43894;DHT22;29556;50.846;4.442;2022-09-09T16:31:32;20.70;76.00
43894;DHT22;29556;50.846;4.442;2022-09-09T16:33:57;20.70;76.50
43894;DHT22;29556;50.846;4.442;2022-09-09T16:36:25;20.50;76.70
43894;DHT22;29556;50.846;4.442;2022-09-09T16:38:54;20.30;79.20
43894;DHT22;29556;50.846;4.442;2022-09-09T16:41:21;20.20;82.10
43894;DHT22;29556;50.846;4.442;2022-09-09T16:43:47;20.20;82.50
43894;DHT22;29556;50.846;4.442;2022-09-09T16:46:19;20.00;82.70
43894;DHT22;29556;50.846;4.442;2022-09-09T16:48:46;20.00;84.10
43894;DHT22;29556;50.846;4.442;2022-09-09T16:51:23;19.90;84.10
43894;DHT22;29556;50.846;4.442;2022-09-09T16:53:49;20.00;84.90
43894;DHT22;29556;50.846;4.442;2022-09-09T16:56:24;20.10;85.20
43894;DHT22;29556;50.846;4.442;2022-09-09T16:58:55;20.20;85.70
43894;DHT22;29556;50.846;4.442;2022-09-09T17:01:33;20.30;86.10
43894;DHT22;29556;50.846;4.442;2022-09-09T17:04:01;20.40;84.40
43894;DHT22;29556;50.846;4.442;2022-09-09T17:06:29;20.50;86.20
43894;DHT22;29556;50.846;4.442;2022-09-09T17:08:56;20.30;84.00
43894;DHT22;29556;50.846;4.442;2022-09-09T17:11:23;20.20;84.20
43894;DHT22;29556;50.846;4.442;2022-09-09T17:13:50;20.20;84.10
43894;DHT22;29556;50.846;4.442;2022-09-09T17:16:17;20.00;83.50
43894;DHT22;29556;50.846;4.442;2022-09-09T17:18:51;19.90;84.70
43894;DHT22;29556;50.846;4.442;2022-09-09T17:21:19;19.90;84.50
43894;DHT22;29556;50.846;4.442;2022-09-09T17:23:46;19.90;86.20